Time;durP1;ratioP1;P1;durP2;ratioP2;P2;SDS_P1;SDS_P2;PMS_P1;PMS_P2;Temp;Humidity;BMP_temperature;BMP_pressure;BME280_temperature;BME280_humidity;BME280_pressure;Samples;Min_cycle;Max_cycle;Signal;HPM_P1;HPM_P2
2024/02/24 00:00:06;;;;;;;2.50;1.77;;;;;;;10.82;57.87;94371.75;4989302;28;20473;-74
2024/02/24 00:02:31;;;;;;;3.42;1.35;;;;;;;10.91;57.47;94386.50;4990450;28;20517;-75
2024/02/24 00:04:57;;;;;;;2.85;1.45;;;;;;;11.10;56.74;94377.03;4989741;28;20049;-74
2024/02/24 00:07:23;;;;;;;2.10;1.20;;;;;;;11.03;57.30;94378.56;4991081;28;20081;-75
2024/02/24 00:09:48;;;;;;;2.30;1.40;;;;;;;10.86;57.09;94359.31;4972039;28;20398;-74
2024/02/24 00:12:13;;;;;;;2.70;1.60;;;;;;;11.29;56.13;94365.78;4972119;28;20034;-74
2024/02/24 00:14:39;;;;;;;2.03;1.20;;;;;;;11.46;55.42;94367.63;4959323;28;20030;-74
2024/02/24 00:17:04;;;;;;;2.38;1.75;;;;;;;11.22;55.95;94367.28;4974453;28;20034;-74
2024/02/24 00:19:29;;;;;;;2.17;1.20;;;;;;;11.28;56.04;94366.72;4991287;28;20034;-75
2024/02/24 00:21:55;;;;;;;2.67;1.40;;;;;;;11.33;56.01;94369.72;4990316;28;20501;-74
2024/02/24 00:24:20;;;;;;;2.40;1.50;;;;;;;11.34;55.96;94368.78;4990120;28;20045;-74
2024/02/24 00:26:46;;;;;;;2.63;1.40;;;;;;;11.19;56.46;94364.00;4981131;28;20027;-74
2024/02/24 00:29:11;;;;;;;23.40;10.07;;;;;;;11.43;55.89;94373.13;4971958;28;20417;-75
2024/02/24 00:31:37;;;;;;;3.92;2.17;;;;;;;11.39;55.54;94358.75;4971318;28;20413;-74
2024/02/24 00:34:02;;;;;;;2.45;1.30;;;;;;;11.30;55.77;94372.59;4954693;28;20109;-74
2024/02/24 00:36:28;;;;;;;2.25;1.40;;;;;;;11.35;55.56;94370.41;4983128;28;20105;-74
2024/02/24 00:38:53;;;;;;;1.92;1.23;;;;;;;11.37;55.27;94371.91;4990100;28;20023;-74
2024/02/24 00:41:19;;;;;;;1.83;1.10;;;;;;;11.37;55.14;94356.31;4990173;28;20413;-74
2024/02/24 00:43:45;;;;;;;2.83;1.23;;;;;;;11.36;54.77;94369.44;4991315;28;20022;-74
2024/02/24 00:46:10;;;;;;;2.20;1.15;;;;;;;11.29;55.30;94366.59;4943131;28;20043;-74
2024/02/24 00:48:35;;;;;;;2.30;1.20;;;;;;;11.45;54.62;94366.00;4970284;28;20034;-74
2024/02/24 00:51:01;;;;;;;2.28;1.20;;;;;;;11.47;54.61;94345.03;4977009;28;20482;-75
2024/02/24 00:53:27;;;;;;;3.13;1.70;;;;;;;11.44;55.18;94340.13;4976447;28;20034;-75
2024/02/24 00:55:52;;;;;;;3.08;1.40;;;;;;;11.31;55.46;94364.69;4993942;28;20042;-74
2024/02/24 00:58:18;;;;;;;2.38;1.20;;;;;;;11.31;55.71;94343.03;4994969;28;20048;-74
2024/02/24 01:00:43;;;;;;;1.52;1.05;;;;;;;11.29;55.37;94348.38;4993894;28;20038;-75
2024/02/24 01:03:08;;;;;;;2.38;1.23;;;;;;;11.31;55.21;94348.22;4992337;28;20026;-75
2024/02/24 01:05:34;;;;;;;3.45;1.42;;;;;;;11.21;55.32;94337.06;4995052;28;20413;-74
2024/02/24 01:07:59;;;;;;;1.73;1.10;;;;;;;11.26;54.86;94332.25;4994574;28;20022;-75
2024/02/24 01:10:25;;;;;;;3.30;1.58;;;;;;;11.28;55.14;94345.91;4993516;28;20039;-74
2024/02/24 01:12:51;;;;;;;2.53;1.05;;;;;;;11.38;54.48;94342.31;4978443;28;20034;-74
2024/02/24 01:15:16;;;;;;;1.67;1.00;;;;;;;11.33;54.73;94343.72;4974083;28;20027;-74
2024/02/24 01:17:42;;;;;;;2.03;1.20;;;;;;;11.29;54.76;94335.38;4975229;28;20460;-74
2024/02/24 01:20:08;;;;;;;2.63;1.30;;;;;;;11.37;54.37;94345.91;4957367;28;20042;-74
2024/02/24 01:22:34;;;;;;;2.10;1.13;;;;;;;11.21;55.14;94353.47;4973889;28;20042;-75
2024/02/24 01:24:59;;;;;;;2.53;1.23;;;;;;;11.21;54.58;94342.28;4973638;28;20035;-74
2024/02/24 01:27:24;;;;;;;1.90;1.10;;;;;;;11.33;54.47;94357.53;4973733;28;20027;-74
2024/02/24 01:29:50;;;;;;;2.35;1.40;;;;;;;11.40;54.34;94339.59;4957547;28;20030;-75
2024/02/24 01:32:15;;;;;;;1.90;1.30;;;;;;;11.37;54.28;94347.69;4975194;28;20508;-74
2024/02/24 01:34:41;;;;;;;2.53;1.48;;;;;;;11.23;54.91;94342.91;4957674;28;20551;-75
2024/02/24 01:37:07;;;;;;;2.40;1.40;;;;;;;11.14;55.11;94345.44;5011580;28;20061;-75
2024/02/24 01:39:32;;;;;;;2.20;1.40;;;;;;;11.11;55.49;94344.88;5006358;28;20057;-74
2024/02/24 01:41:58;;;;;;;2.30;1.23;;;;;;;11.10;54.60;94340.66;4983338;28;20021;-74
2024/02/24 01:44:23;;;;;;;2.50;1.13;;;;;;;11.36;54.00;94349.44;5015106;28;20030;-74
2024/02/24 01:46:48;;;;;;;2.90;1.27;;;;;;;11.35;54.22;94334.81;5014213;28;20037;-75
2024/02/24 01:49:15;;;;;;;2.00;1.38;;;;;;;11.33;53.86;94343.72;4998526;28;20476;-74
2024/02/24 01:51:40;;;;;;;2.10;1.20;;;;;;;11.06;53.88;94290.75;5033286;28;20034;-74
2024/02/24 01:54:06;;;;;;;3.05;1.48;;;;;;;11.10;54.71;94333.66;4983369;28;20026;-74
2024/02/24 01:56:32;;;;;;;1.98;1.20;;;;;;;11.13;54.60;94341.19;4980371;28;20034;-75
2024/02/24 01:58:58;;;;;;;1.92;1.15;;;;;;;11.31;53.49;94345.63;4998762;28;20028;-74
2024/02/24 02:01:23;;;;;;;4.07;1.45;;;;;;;11.39;53.67;94340.53;5015465;28;20029;-75
2024/02/24 02:03:48;;;;;;;1.65;1.15;;;;;;;11.04;54.33;94330.84;5014906;28;20443;-74
2024/02/24 02:06:14;;;;;;;1.50;0.98;;;;;;;11.16;54.00;94345.28;4998310;28;20048;-74
2024/02/24 02:08:39;;;;;;;1.88;1.20;;;;;;;11.18;54.09;94333.78;5032992;28;20025;-74
2024/02/24 02:11:05;;;;;;;2.22;1.20;;;;;;;11.16;53.91;94319.28;5032813;28;20492;-74
2024/02/24 02:13:30;;;;;;;2.75;1.50;;;;;;;11.21;53.43;94326.66;4978943;28;20037;-74
2024/02/24 02:15:56;;;;;;;2.42;1.25;;;;;;;11.22;53.30;94317.91;5024848;28;20034;-74
2024/02/24 02:18:21;;;;;;;2.40;1.20;;;;;;;11.11;53.30;94298.09;5031330;28;20033;-75
2024/02/24 02:20:49;;;;;;;2.10;1.20;;;;;;;11.38;52.41;94328.50;4998530;28;20029;-74
2024/02/24 02:23:15;;;;;;;2.53;1.30;;;;;;;11.22;53.02;94318.72;4998278;28;20260;-74
2024/02/24 02:25:40;;;;;;;2.00;1.20;;;;;;;11.15;52.90;94339.28;4997710;28;20107;-74
2024/02/24 02:28:05;;;;;;;1.50;0.90;;;;;;;11.36;50.37;94320.84;5015009;28;20509;-74
2024/02/24 02:30:31;;;;;;;1.35;1.00;;;;;;;11.40;51.62;94331.78;5014882;28;20562;-74
2024/02/24 02:32:56;;;;;;;2.38;1.23;;;;;;;11.36;51.59;94325.22;5003906;28;20088;-74
2024/02/24 02:35:22;;;;;;;2.20;1.15;;;;;;;11.11;52.23;94319.69;5032043;28;20064;-74
2024/02/24 02:37:48;;;;;;;1.40;0.80;;;;;;;11.43;49.30;94331.50;5014914;28;20408;-74
2024/02/24 02:40:13;;;;;;;1.67;1.00;;;;;;;11.41;50.70;94333.41;5014764;28;20393;-75
2024/02/24 02:42:38;;;;;;;1.92;1.10;;;;;;;11.37;50.49;94327.69;5030336;28;20087;-74
2024/02/24 02:45:04;;;;;;;1.63;1.00;;;;;;;11.28;50.94;94296.50;4998163;28;20056;-75
2024/02/24 02:47:30;;;;;;;1.92;1.00;;;;;;;11.44;51.15;94330.53;5014609;28;20025;-74
2024/02/24 02:49:55;;;;;;;1.65;0.98;;;;;;;11.46;49.65;94341.63;5032590;28;20037;-74
2024/02/24 02:52:21;;;;;;;1.63;0.98;;;;;;;11.42;49.56;94355.84;5013255;28;20068;-74
2024/02/24 02:54:46;;;;;;;1.80;1.00;;;;;;;11.49;49.27;94361.31;5032211;28;20033;-74
2024/02/24 02:57:11;;;;;;;1.52;1.00;;;;;;;11.39;50.24;94361.34;5014525;28;20033;-74
2024/02/24 02:59:37;;;;;;;2.15;1.20;;;;;;;11.29;51.24;94364.00;5031962;28;20036;-74
2024/02/24 03:02:03;;;;;;;2.28;1.30;;;;;;;11.23;51.40;94389.72;5013302;28;20091;-75
2024/02/24 03:04:28;;;;;;;6.07;3.97;;;;;;;11.01;52.66;94389.09;5031511;28;20274;-75
2024/02/24 03:06:53;;;;;;;5.68;3.67;;;;;;;10.97;53.02;94379.94;4997904;28;20071;-74
2024/02/24 03:09:19;;;;;;;5.50;3.75;;;;;;;10.74;53.85;94392.41;5030187;28;20391;-74
2024/02/24 03:11:44;;;;;;;6.05;4.22;;;;;;;10.42;54.58;94366.72;5011808;28;20022;-74
2024/02/24 03:14:10;;;;;;;6.07;4.10;;;;;;;10.50;55.17;94403.22;5014046;28;20029;-74
2024/02/24 03:16:36;;;;;;;6.15;4.90;;;;;;;10.27;55.39;94379.28;4997725;28;20068;-74
2024/02/24 03:19:02;;;;;;;7.90;5.22;;;;;;;10.10;55.57;94383.34;5013290;28;20458;-74
2024/02/24 03:21:31;;;;;;;6.90;5.10;;;;;;;9.85;56.79;94366.50;5013946;28;20021;-74
2024/02/24 03:23:57;;;;;;;8.07;5.65;;;;;;;9.63;57.36;94376.13;4983793;28;20034;-74
2024/02/24 03:26:23;;;;;;;7.68;5.80;;;;;;;9.40;57.76;94354.78;5011864;28;20656;-74
2024/02/24 03:28:48;;;;;;;7.63;5.72;;;;;;;9.28;58.33;94363.59;4994842;28;20073;-74
2024/02/24 03:31:13;;;;;;;8.98;6.13;;;;;;;9.43;58.28;94386.59;4996756;28;20507;-74
2024/02/24 03:33:39;;;;;;;2.95;2.00;;;;;;;9.02;59.60;94376.16;5013874;28;20045;-74
2024/02/24 03:36:04;;;;;;;2.42;1.60;;;;;;;9.14;58.59;94353.59;5013679;28;20064;-74
2024/02/24 03:38:30;;;;;;;1.88;1.17;;;;;;;9.39;58.15;94358.34;4996343;28;20025;-74
2024/02/24 03:40:55;;;;;;;3.88;1.50;;;;;;;9.61;56.85;94362.50;5031660;28;20038;-74
2024/02/24 03:43:20;;;;;;;1.70;1.10;;;;;;;9.93;56.40;94381.41;5031307;28;20029;-74
2024/02/24 03:45:46;;;;;;;1.90;1.25;;;;;;;10.09;55.24;94376.53;5021717;28;20037;-74
2024/02/24 03:48:11;;;;;;;3.10;1.30;;;;;;;9.99;54.91;94357.53;5019947;28;20040;-74
2024/02/24 03:50:37;;;;;;;3.47;1.13;;;;;;;10.34;55.02;94384.78;5013403;28;20552;-74
2024/02/24 03:53:02;;;;;;;2.17;1.35;;;;;;;10.42;54.09;94392.69;5000591;28;20528;-74
2024/02/24 03:55:28;;;;;;;2.45;1.30;;;;;;;10.49;53.48;94393.78;5001107;28;20167;-74
2024/02/24 03:57:53;;;;;;;3.38;1.30;;;;;;;10.50;53.42;94405.81;4997100;28;20021;-73
2024/02/24 04:00:19;;;;;;;2.10;1.10;;;;;;;10.58;52.85;94402.53;4997049;28;20079;-73
2024/02/24 04:02:44;;;;;;;2.28;1.25;;;;;;;10.68;52.48;94403.38;4993170;28;20083;-73
2024/02/24 04:05:10;;;;;;;5.00;3.60;;;;;;;10.28;54.65;94422.50;5017118;28;20092;-74
2024/02/24 04:07:35;;;;;;;6.22;4.50;;;;;;;10.16;54.89;94421.75;4995920;28;20029;-73
2024/02/24 04:10:01;;;;;;;6.13;4.05;;;;;;;10.18;55.23;94453.59;4967216;28;20485;-74
2024/02/24 04:12:26;;;;;;;6.07;4.18;;;;;;;9.89;55.83;94437.09;5018505;28;20041;-74
2024/02/24 04:14:51;;;;;;;5.43;3.60;;;;;;;9.67;55.70;94402.66;5025417;28;20566;-74
2024/02/24 04:17:17;;;;;;;3.95;2.63;;;;;;;9.71;55.98;94401.41;5003840;28;20560;-74
2024/02/24 04:19:42;;;;;;;4.00;2.88;;;;;;;9.58;56.31;94403.41;5001716;28;20053;-74
2024/02/24 04:22:08;;;;;;;2.85;2.00;;;;;;;9.45;56.53;94414.03;5023854;28;20037;-74
2024/02/24 04:24:33;;;;;;;5.35;1.50;;;;;;;9.62;55.91;94403.03;5001228;28;20034;-74
2024/02/24 04:26:59;;;;;;;2.17;1.42;;;;;;;9.60;55.55;94379.00;5007548;28;20419;-74
2024/02/24 04:29:24;;;;;;;2.35;1.30;;;;;;;9.93;54.83;94409.94;5012323;28;20041;-74
2024/02/24 04:31:50;;;;;;;2.92;1.10;;;;;;;10.15;53.77;94404.53;4992756;28;20033;-74
2024/02/24 04:34:15;;;;;;;1.60;1.10;;;;;;;10.21;53.24;94388.41;5005789;28;20036;-74
2024/02/24 04:36:41;;;;;;;1.95;1.23;;;;;;;10.25;53.18;94438.28;5023717;28;20057;-74
2024/02/24 04:39:08;;;;;;;3.25;2.17;;;;;;;10.17;53.61;94410.41;5025347;28;20097;-74
2024/02/24 04:41:33;;;;;;;6.97;3.90;;;;;;;10.09;54.89;94441.41;5020548;28;20025;-73
2024/02/24 04:43:59;;;;;;;5.93;4.18;;;;;;;9.94;55.28;94434.94;4998672;28;20088;-75
2024/02/24 04:46:24;;;;;;;6.20;4.05;;;;;;;10.11;54.63;94442.06;5011221;28;20095;-74
2024/02/24 04:48:50;;;;;;;4.57;3.50;;;;;;;9.84;55.24;94448.72;5022591;28;20026;-74
2024/02/24 04:51:15;;;;;;;7.20;4.30;;;;;;;9.63;56.13;94453.13;5018214;28;20033;-74
2024/02/24 04:53:41;;;;;;;7.72;5.30;;;;;;;9.51;56.43;94412.69;4987353;28;20806;-75
2024/02/24 04:56:07;;;;;;;8.50;5.28;;;;;;;9.42;56.89;94435.03;5023600;28;20172;-75
2024/02/24 04:58:32;;;;;;;8.52;5.93;;;;;;;9.42;56.99;94436.78;5026585;28;20692;-74
2024/02/24 05:00:58;;;;;;;9.13;5.90;;;;;;;8.86;58.75;94454.34;5002529;28;20049;-72
2024/02/24 05:03:23;;;;;;;7.82;5.28;;;;;;;8.90;59.75;94466.06;5028954;28;20531;-74
2024/02/24 05:05:49;;;;;;;6.90;5.45;;;;;;;8.80;59.21;94441.84;4995535;28;20029;-74
2024/02/24 05:08:14;;;;;;;7.35;5.50;;;;;;;8.84;59.67;94468.34;5006799;28;20033;-74
2024/02/24 05:10:40;;;;;;;8.80;5.30;;;;;;;8.76;59.33;94473.34;5004013;28;20407;-74
2024/02/24 05:13:05;;;;;;;6.78;4.70;;;;;;;8.55;60.03;94481.03;5010472;28;20511;-73
2024/02/24 05:15:31;;;;;;;6.07;4.60;;;;;;;8.53;59.88;94468.25;4999844;28;20057;-73
2024/02/24 05:17:56;;;;;;;6.07;4.40;;;;;;;8.13;60.91;94467.94;5012168;28;20030;-73
2024/02/24 05:20:21;;;;;;;8.63;5.47;;;;;;;8.10;62.01;94499.25;4988602;28;20049;-72
2024/02/24 05:22:47;;;;;;;6.18;4.82;;;;;;;8.07;61.67;94495.94;5026084;28;20484;-74
2024/02/24 05:25:13;;;;;;;10.93;6.55;;;;;;;7.88;62.81;94495.72;5027997;28;20037;-71
2024/02/24 05:27:39;;;;;;;8.95;6.30;;;;;;;7.72;62.99;94490.09;5024347;28;20419;-73
2024/02/24 05:30:05;;;;;;;8.70;6.20;;;;;;;7.40;64.20;94498.53;5010627;28;20515;-74
2024/02/24 05:32:30;;;;;;;9.93;6.60;;;;;;;7.43;64.49;94476.78;5010010;28;20519;-73
2024/02/24 05:34:56;;;;;;;14.32;8.70;;;;;;;7.65;64.03;94528.50;5011379;28;20487;-74
2024/02/24 05:37:21;;;;;;;9.90;7.07;;;;;;;7.49;64.53;94534.00;4998326;28;20480;-74
2024/02/24 05:39:47;;;;;;;10.32;6.88;;;;;;;7.43;64.51;94516.38;5030569;28;20029;-74
2024/02/24 05:42:13;;;;;;;10.55;6.70;;;;;;;7.56;63.57;94524.88;5012497;28;20029;-74
2024/02/24 05:44:38;;;;;;;10.38;6.18;;;;;;;7.47;64.58;94548.84;4996434;28;21445;-73
2024/02/24 05:47:04;;;;;;;9.15;6.43;;;;;;;7.29;64.85;94525.16;5008759;28;20026;-73
2024/02/24 05:49:30;;;;;;;9.10;6.70;;;;;;;7.10;65.27;94523.16;4997042;28;20412;-73
2024/02/24 05:51:55;;;;;;;8.60;6.43;;;;;;;7.20;65.20;94518.09;5026808;28;20029;-73
2024/02/24 05:54:21;;;;;;;10.32;7.15;;;;;;;7.18;65.34;94547.56;4996861;28;20061;-73
2024/02/24 05:56:47;;;;;;;11.52;7.65;;;;;;;7.44;64.57;94561.97;5012912;28;20037;-74
2024/02/24 05:59:12;;;;;;;16.27;11.20;;;;;;;7.30;64.75;94549.25;4997422;28;20029;-73
2024/02/24 06:01:38;;;;;;;12.88;9.07;;;;;;;7.25;65.06;94546.19;5027377;28;20030;-73
2024/02/24 06:04:04;;;;;;;12.93;7.05;;;;;;;7.33;65.49;94569.72;4992164;28;20069;-74
2024/02/24 06:06:30;;;;;;;11.18;7.50;;;;;;;7.16;65.53;94573.53;5011006;28;20072;-74
2024/02/24 06:08:55;;;;;;;8.55;6.43;;;;;;;7.15;66.03;94566.69;5030619;28;20099;-74
2024/02/24 06:11:21;;;;;;;7.85;5.82;;;;;;;6.95;66.28;94560.41;5007608;28;20022;-74
2024/02/24 06:13:46;;;;;;;9.77;6.53;;;;;;;6.86;66.90;94566.25;5011489;28;20041;-74
2024/02/24 06:16:12;;;;;;;10.77;6.70;;;;;;;7.02;67.22;94569.38;5032349;28;20018;-74
2024/02/24 06:18:37;;;;;;;14.20;8.18;;;;;;;7.16;66.37;94576.94;4996876;28;20056;-74
2024/02/24 06:21:03;;;;;;;9.77;6.53;;;;;;;7.07;66.55;94582.75;5030295;28;20059;-74
2024/02/24 06:23:29;;;;;;;8.55;6.00;;;;;;;7.25;67.09;94569.44;5012569;28;20424;-74
2024/02/24 06:25:56;;;;;;;8.18;5.72;;;;;;;7.16;67.21;94573.53;4996861;28;20021;-74
2024/02/24 06:28:21;;;;;;;8.95;4.93;;;;;;;7.19;67.06;94562.97;5031972;28;20411;-74
2024/02/24 06:30:47;;;;;;;7.93;5.22;;;;;;;7.47;66.79;94576.44;5012753;28;20036;-74
2024/02/24 06:33:12;;;;;;;11.55;8.65;;;;;;;7.38;66.56;94570.16;5011791;28;20026;-73
2024/02/24 06:35:37;;;;;;;22.85;13.52;;;;;;;7.75;66.05;94585.53;5004779;28;20423;-74
2024/02/24 06:38:03;;;;;;;15.00;10.07;;;;;;;7.81;65.43;94587.66;4994824;28;20034;-74
2024/02/24 06:40:28;;;;;;;19.25;11.70;;;;;;;7.84;65.23;94582.25;4997726;28;20056;-74
2024/02/24 06:42:55;;;;;;;20.35;11.98;;;;;;;7.97;64.68;94579.56;5011782;28;20038;-74
2024/02/24 06:45:20;;;;;;;21.10;12.25;;;;;;;8.76;63.32;94572.56;5012738;28;20116;-74
2024/02/24 06:47:45;;;;;;;17.95;10.43;;;;;;;9.95;59.07;94549.00;5020780;28;20044;-74
2024/02/24 06:50:11;;;;;;;16.45;11.25;;;;;;;10.69;57.11;94563.47;5005897;28;20032;-74
2024/02/24 06:52:36;;;;;;;16.65;11.55;;;;;;;12.10;53.15;94568.22;5011496;28;20045;-74
2024/02/24 06:55:02;;;;;;;17.08;10.02;;;;;;;12.86;50.33;94562.78;5032171;28;20032;-74
2024/02/24 06:57:27;;;;;;;22.05;12.13;;;;;;;13.20;49.40;94568.16;5010342;28;20029;-74
2024/02/24 06:59:53;;;;;;;20.50;12.50;;;;;;;14.48;46.34;94559.75;5018296;28;20464;-75
2024/02/24 07:02:19;;;;;;;22.67;12.82;;;;;;;15.35;43.94;94562.13;5028473;28;20095;-75
2024/02/24 07:04:45;;;;;;;21.52;11.60;;;;;;;16.24;41.59;94563.94;5012969;28;20025;-75
2024/02/24 07:07:10;;;;;;;18.33;10.57;;;;;;;16.64;40.37;94549.03;5009833;28;20421;-75
2024/02/24 07:09:36;;;;;;;16.23;11.10;;;;;;;17.19;39.19;94550.75;5012628;28;20473;-74
2024/02/24 07:12:02;;;;;;;14.07;9.40;;;;;;;17.97;38.42;94551.50;5031122;28;20683;-74
2024/02/24 07:14:27;;;;;;;11.63;7.25;;;;;;;18.72;35.64;94549.66;4982053;28;20060;-74
2024/02/24 07:16:53;;;;;;;6.82;3.60;;;;;;;17.76;35.24;94544.25;5020881;28;20061;-74
2024/02/24 07:19:18;;;;;;;5.88;2.55;;;;;;;18.47;35.63;94536.00;5012151;28;20077;-74
2024/02/24 07:21:44;;;;;;;2.00;1.40;;;;;;;17.40;34.96;94531.72;5024314;28;20061;-75
2024/02/24 07:24:09;;;;;;;2.28;1.65;;;;;;;17.62;35.17;94547.66;5009514;28;20041;-75
2024/02/24 07:26:44;;;;;;;2.05;1.42;;;;;;;18.37;34.45;94540.72;5011945;28;20040;-75
2024/02/24 07:29:09;;;;;;;2.38;1.73;;;;;;;20.02;31.86;94539.09;5013121;28;20033;-74
2024/02/24 07:31:35;;;;;;;1.80;1.17;;;;;;;20.28;30.86;94535.84;5012676;28;20319;-74
2024/02/24 07:34:01;;;;;;;3.00;1.40;;;;;;;20.70;30.57;94533.25;5011200;28;20033;-74
2024/02/24 07:36:26;;;;;;;3.58;1.35;;;;;;;21.09;29.93;94540.50;4993403;28;20062;-74
2024/02/24 07:38:53;;;;;;;2.65;1.50;;;;;;;21.44;29.51;94529.03;5009851;28;20014;-74
2024/02/24 07:41:18;;;;;;;5.03;1.98;;;;;;;22.21;29.01;94556.75;5012999;28;20503;-73
2024/02/24 07:43:43;;;;;;;3.67;2.00;;;;;;;22.19;28.83;94551.66;5010208;28;20030;-74
2024/02/24 07:46:10;;;;;;;6.10;4.03;;;;;;;21.48;29.79;94561.94;5013235;28;20037;-74
2024/02/24 07:48:37;;;;;;;15.57;11.68;;;;;;;20.44;32.17;94571.63;5030288;28;20061;-74
2024/02/24 07:51:02;;;;;;;12.68;8.35;;;;;;;20.22;32.60;94578.78;5002754;28;20030;-74
2024/02/24 07:53:28;;;;;;;7.65;5.97;;;;;;;21.29;31.31;94582.81;5003724;28;20048;-74
2024/02/24 07:55:53;;;;;;;8.40;6.63;;;;;;;22.94;29.49;94575.94;4995264;28;20028;-75
2024/02/24 07:58:19;;;;;;;12.85;8.35;;;;;;;23.45;28.74;94582.25;4993119;28;20425;-74
2024/02/24 08:00:45;;;;;;;7.53;6.07;;;;;;;25.08;26.63;94573.38;4994916;28;20496;-75
2024/02/24 08:03:10;;;;;;;7.57;5.75;;;;;;;25.12;25.81;94573.75;4995247;28;20033;-75
2024/02/24 08:05:35;;;;;;;3.70;3.20;;;;;;;25.06;25.04;94577.28;5012160;28;20018;-75
2024/02/24 08:08:01;;;;;;;2.25;1.55;;;;;;;22.73;26.98;94569.09;5002635;28;20034;-75
2024/02/24 08:10:26;;;;;;;3.08;1.90;;;;;;;23.55;26.49;94582.63;5005693;28;20488;-75
2024/02/24 08:12:52;;;;;;;2.40;1.40;;;;;;;22.11;27.60;94591.50;5009928;28;20030;-75
2024/02/24 08:15:18;;;;;;;2.72;1.40;;;;;;;22.46;26.79;94588.69;5010949;28;20041;-77
2024/02/24 08:17:44;;;;;;;1.85;1.25;;;;;;;22.97;26.09;94580.84;4983975;28;20040;-77
2024/02/24 08:20:10;;;;;;;1.98;1.20;;;;;;;23.54;25.79;94594.25;5005163;28;20041;-77
2024/02/24 08:22:36;;;;;;;3.15;2.03;;;;;;;23.10;26.12;94601.19;5028142;28;20033;-75
2024/02/24 08:25:01;;;;;;;1.98;1.20;;;;;;;23.78;25.16;94597.19;5030508;28;20517;-76
2024/02/24 08:27:33;;;;;;;1.80;1.10;;;;;;;22.11;27.09;94601.28;5028846;28;20087;-77
2024/02/24 08:30:05;;;;;;;2.00;1.20;;;;;;;20.40;29.15;94590.69;5025779;28;20034;-76
2024/02/24 08:32:31;;;;;;;1.90;1.30;;;;;;;20.52;29.90;94600.50;5012110;28;20034;-76
2024/02/24 08:34:57;;;;;;;3.47;1.45;;;;;;;19.63;30.76;94598.31;5029944;28;20088;-76
2024/02/24 08:37:22;;;;;;;4.00;2.67;;;;;;;19.24;31.50;94590.81;5028215;28;20116;-76
2024/02/24 08:39:48;;;;;;;2.30;1.30;;;;;;;18.32;33.13;94585.97;5021854;28;20466;-76
2024/02/24 08:42:15;;;;;;;2.05;1.20;;;;;;;18.53;32.84;94587.91;5012353;28;20076;-75
2024/02/24 08:44:41;;;;;;;2.85;1.30;;;;;;;18.01;34.01;94594.78;5032242;28;20060;-75
2024/02/24 08:47:07;;;;;;;5.40;1.65;;;;;;;18.46;33.47;94589.59;5026870;28;20033;-78
2024/02/24 08:49:32;;;;;;;2.22;1.33;;;;;;;17.89;33.50;94593.59;5022628;28;20056;-78
2024/02/24 08:51:58;;;;;;;5.93;2.72;;;;;;;17.59;34.80;94597.91;5029591;28;20028;-78
2024/02/24 08:54:24;;;;;;;2.92;2.10;;;;;;;17.39;35.75;94603.59;5027629;28;22007;-78
2024/02/24 08:56:49;;;;;;;2.90;1.30;;;;;;;17.25;35.21;94603.53;5023517;28;20438;-79
2024/02/24 08:59:15;;;;;;;2.05;1.27;;;;;;;16.87;35.88;94617.31;5033200;28;20025;-78
2024/02/24 09:01:44;;;;;;;2.53;1.40;;;;;;;17.10;35.54;94608.69;5009423;28;20037;-77
2024/02/24 09:04:14;;;;;;;2.85;1.45;;;;;;;16.67;36.25;94605.56;5016592;28;20030;-77
2024/02/24 09:06:44;;;;;;;2.30;1.20;;;;;;;16.74;36.18;94601.28;5025502;28;20022;-78
2024/02/24 09:09:16;;;;;;;3.15;1.23;;;;;;;16.88;36.05;94603.22;5039527;28;20037;-77
2024/02/24 09:11:49;;;;;;;2.42;1.42;;;;;;;16.74;36.32;94602.09;5008245;28;20038;-74
2024/02/24 09:14:14;;;;;;;2.35;1.50;;;;;;;16.85;37.77;94606.19;5013768;28;20026;-77
2024/02/24 09:16:40;;;;;;;4.65;2.00;;;;;;;16.96;37.64;94604.97;5028861;28;20443;-76
2024/02/24 09:19:05;;;;;;;2.33;1.30;;;;;;;17.07;36.64;94604.59;5027594;28;20144;-75
2024/02/24 09:21:31;;;;;;;2.78;1.10;;;;;;;17.17;36.14;94604.41;5039990;28;20470;-76
2024/02/24 09:24:06;;;;;;;3.20;1.58;;;;;;;16.98;36.76;94595.16;5045229;28;20022;-75
2024/02/24 09:26:33;;;;;;;3.67;1.40;;;;;;;17.04;37.18;94606.75;4977068;28;20041;-75
2024/02/24 09:28:58;;;;;;;4.95;1.65;;;;;;;16.90;36.90;94595.19;5038251;28;20635;-73
2024/02/24 09:31:33;;;;;;;2.30;1.42;;;;;;;16.52;37.37;94602.84;5050448;28;20032;-76
2024/02/24 09:33:59;;;;;;;3.15;1.50;;;;;;;16.79;37.10;94593.75;5043232;28;20031;-77
2024/02/24 09:36:25;;;;;;;2.40;1.30;;;;;;;17.08;36.72;94602.81;5015041;28;20059;-78
2024/02/24 09:38:51;;;;;;;2.83;1.30;;;;;;;17.12;36.17;94604.09;5004367;28;20529;-77
2024/02/24 09:41:17;;;;;;;2.20;1.20;;;;;;;16.94;36.75;94599.09;4997190;28;20457;-76
2024/02/24 09:43:42;;;;;;;2.30;1.40;;;;;;;16.74;37.03;94577.66;4993382;28;20121;-77
2024/02/24 09:46:08;;;;;;;2.10;1.50;;;;;;;16.90;37.49;94600.44;4995684;28;20081;-77
2024/02/24 09:48:33;;;;;;;2.35;1.50;;;;;;;17.06;36.32;94607.41;4992059;28;20061;-77
2024/02/24 09:50:59;;;;;;;2.45;1.30;;;;;;;17.12;35.80;94589.16;4983229;28;20027;-77
2024/02/24 09:53:25;;;;;;;2.60;1.67;;;;;;;17.01;36.32;94573.00;4988750;28;20038;-76
2024/02/24 09:55:51;;;;;;;2.38;1.40;;;;;;;17.16;35.74;94594.88;4977063;28;20056;-75
2024/02/24 09:58:17;;;;;;;2.13;1.42;;;;;;;17.10;36.08;94595.56;4990362;28;20072;-76
2024/02/24 10:00:43;;;;;;;3.85;1.20;;;;;;;17.24;35.73;94575.66;4983294;28;20038;-76
2024/02/24 10:03:10;;;;;;;2.10;1.30;;;;;;;17.14;35.77;94600.31;4969802;28;20038;-75
2024/02/24 10:05:36;;;;;;;2.45;0.90;;;;;;;17.23;35.03;94603.72;4957523;28;20122;-75
2024/02/24 10:08:01;;;;;;;1.52;1.00;;;;;;;17.25;34.82;94587.78;4989746;28;20030;-73
2024/02/24 10:10:28;;;;;;;5.38;3.72;;;;;;;17.49;34.94;94592.06;4987245;28;20425;-76
2024/02/24 10:12:57;;;;;;;2.10;1.20;;;;;;;17.42;34.92;94592.75;4983147;28;20035;-75
2024/02/24 10:15:23;;;;;;;2.20;1.10;;;;;;;17.41;34.19;94588.50;4991386;28;20026;-75
2024/02/24 10:17:49;;;;;;;2.88;1.10;;;;;;;17.57;34.69;94590.19;4974795;28;20026;-75
2024/02/24 10:20:14;;;;;;;2.65;1.30;;;;;;;17.47;34.58;94578.28;4991894;28;20045;-75
2024/02/24 10:22:40;;;;;;;2.03;1.17;;;;;;;17.43;34.84;94568.13;4975361;28;20038;-75
2024/02/24 10:25:05;;;;;;;2.53;1.00;;;;;;;17.84;34.61;94601.19;4991050;28;20034;-75
2024/02/24 10:27:31;;;;;;;5.45;1.20;;;;;;;17.85;34.78;94571.28;4970821;28;20026;-75
2024/02/24 10:29:57;;;;;;;2.20;1.20;;;;;;;17.91;34.89;94585.53;4984106;28;20041;-75
2024/02/24 10:32:23;;;;;;;2.47;1.30;;;;;;;17.70;35.48;94581.72;4972100;28;20113;-75
2024/02/24 10:34:49;;;;;;;3.33;1.90;;;;;;;17.33;35.42;94548.38;4973738;28;20473;-75
2024/02/24 10:37:14;;;;;;;3.20;1.58;;;;;;;17.62;34.80;94576.53;4969574;28;20049;-76
2024/02/24 10:39:40;;;;;;;2.10;1.35;;;;;;;17.55;35.67;94583.47;4974603;28;20034;-75
2024/02/24 10:42:06;;;;;;;2.15;1.40;;;;;;;17.46;35.69;94587.97;4974361;28;20401;-76
2024/02/24 10:44:33;;;;;;;2.45;1.25;;;;;;;17.61;34.88;94593.31;4991624;28;20084;-76
2024/02/24 10:46:59;;;;;;;2.70;1.30;;;;;;;17.17;35.34;94572.91;4986562;28;20031;-73
2024/02/24 10:49:25;;;;;;;2.00;1.40;;;;;;;17.27;35.95;94586.59;4986541;28;20149;-75
2024/02/24 10:51:50;;;;;;;2.00;1.30;;;;;;;17.41;35.16;94575.38;4992433;28;20022;-74
2024/02/24 10:54:19;;;;;;;4.07;1.60;;;;;;;17.39;35.60;94585.22;4987577;28;20042;-74
2024/02/24 10:56:44;;;;;;;3.25;1.20;;;;;;;17.25;35.60;94603.53;4964375;28;20026;-74
2024/02/24 10:59:10;;;;;;;2.08;1.20;;;;;;;17.24;35.42;94607.13;4983153;28;20391;-75
2024/02/24 11:01:45;;;;;;;2.90;1.40;;;;;;;17.24;36.06;94592.19;4989012;28;20019;-75
2024/02/24 11:04:11;;;;;;;2.60;1.70;;;;;;;17.06;36.48;94595.09;4973973;28;20046;-74
2024/02/24 11:06:48;;;;;;;2.78;2.00;;;;;;;17.13;35.82;94584.72;4972455;28;20037;-75
2024/02/24 11:09:37;;;;;;;2.40;1.40;;;;;;;17.26;35.90;94592.03;5006633;28;20053;-74
2024/02/24 11:12:03;;;;;;;3.15;1.80;;;;;;;17.37;35.60;94579.34;4980502;28;20404;-76
2024/02/24 11:14:31;;;;;;;2.47;1.63;;;;;;;17.04;35.89;94581.34;4980635;28;20031;-76
2024/02/24 11:16:59;;;;;;;3.15;1.70;;;;;;;16.89;36.21;94591.75;4966584;28;20031;-75
2024/02/24 11:19:45;;;;;;;2.60;1.58;;;;;;;16.93;36.04;94593.03;4987335;28;20053;-75
2024/02/24 11:22:21;;;;;;;3.35;1.95;;;;;;;16.88;36.26;94574.38;4988485;28;20042;-74
2024/02/24 11:25:07;;;;;;;2.20;1.30;;;;;;;16.82;36.10;94577.66;4972073;28;20105;-75
2024/02/24 11:27:40;;;;;;;2.33;1.30;;;;;;;16.64;36.75;94564.78;4987089;28;20042;-75